Nearby METAR Reports

 

K8A0 - Albertville Muni, AL
Distance from station: SW 1mi, 2km
Updated: Tue, 03-Aug-2021 10:55am CDT
Clear
Clear
 Wind from N
Wind: N 8 mph , 13 km/h
Temperature: 79°F , 26°C
Dew Point: 64°F , 18°C
Humidity: 61%
Barometer: 30.03 inHg , 1016.9 hPa
Clouds: Clear
Visibility: 10 miles , 16 km
2021/08/03 15:55 K8A0 031555Z AUTO 01007KT 10SM CLR 26/18 A3003 RMK AO2
KGAD - Gadsden Muni, AL
Distance from station: SSE 21mi, 35km
Updated: Tue, 03-Aug-2021 10:56am CDT
Clear
Clear
 Wind from varies
Wind: varies 3 mph , 6 km/h
Temperature: 81°F , 27°C
Heat Index: 85°F , 29°C
Dew Point: 70°F , 21°C
Humidity: 70%
Barometer: 30.01 inHg , 1016.3 hPa
Clouds: Clear
Visibility: 10 miles , 16 km
2021/08/03 15:56 KGAD 031556Z AUTO VRB03KT 10SM CLR 27/21 A3001 RMK AO2 SLP159 T02720206
 
K4A6 - Scottsboro, AL
Distance from station: NNE 33mi, 53km
Updated: Tue, 03-Aug-2021 10:55am CDT
Clear
Clear
 Wind from E
Wind: E 6 mph , 9 km/h
Temperature: 79°F , 26°C
Dew Point: 68°F , 20°C
Humidity: 70%
Barometer: 30.02 inHg , 1016.6 hPa
Clouds: Clear
Visibility: 10 miles , 16 km
2021/08/03 15:55 K4A6 031555Z AUTO 08005KT 10SM CLR 26/20 A3002 RMK AO2
K4A9 - Ft Payne, AL
Distance from station: ENE 33mi, 54km
Updated: Tue, 03-Aug-2021 10:55am CDT
Partly cloudy
Partly cloudy
 Wind from NE
Wind: NE 6 mph , 9 km/h
Temperature: 81°F , 27°C
Heat Index: 83°F , 28°C
Dew Point: 64°F , 18°C
Humidity: 58%
Barometer: 30.00 inHg , 1015.9 hPa
Clouds: Partly cloudy
Visibility: 10 miles , 16 km
Cloud details: Partly cloudy 4600 ft
2021/08/03 15:55 K4A9 031555Z AUTO 05005KT 10SM SCT046 27/18 A3000 RMK AO2 T02730182
 
KMDQ - Huntsville, AL
Distance from station: NNW 47mi, 75km
Updated: Tue, 03-Aug-2021 10:55am CDT
Clear
Clear
 Wind from N
Wind: N 10 mph , 17 km/h
Temperature: 79°F , 26°C
Dew Point: 64°F , 18°C
Humidity: 61%
Barometer: 30.03 inHg , 1016.9 hPa
Clouds: Clear
Visibility: 10 miles , 16 km
2021/08/03 15:55 KMDQ 031555Z AUTO 35009KT 10SM CLR 26/18 A3003 RMK A02 T02640182
KDCU - Decatur, AL
Distance from station: NW 49mi, 80km
Updated: Tue, 03-Aug-2021 10:53am CDT
Clear
Clear
 Wind from NNE
Wind: NNE 7 mph , 11 km/h
Temperature: 81°F , 27°C
Heat Index: 83°F , 28°C
Dew Point: 66°F , 19°C
Humidity: 62%
Barometer: 30.02 inHg , 1016.6 hPa
Clouds: Clear
Visibility: 10 miles , 16 km
2021/08/03 15:53 KDCU 031553Z AUTO 03006KT 10SM CLR 27/19 A3002 RMK AO2 SLP160 T02670189
 
KGKT - Sevierville, TN
Distance from station: NE 235mi, 378km
Updated: Tue, 03-Aug-2021 10:55am CDT
Partly cloudy
Partly cloudy
 Wind from varies
Wind: varies 7 mph , 11 km/h
Temperature: 81°F , 27°C
Heat Index: 83°F , 28°C
Dew Point: 64°F , 18°C
Humidity: 58%
Barometer: 30.01 inHg , 1016.3 hPa
Clouds: Partly cloudy
Visibility: 10 miles , 16 km
Cloud details: Partly cloudy 10000 ft
2021/08/03 15:55 KGKT 031555Z AUTO VRB06KT 10SM SCT100 27/18 A3001 RMK A01
KSSI - Jeckyll Island, GA
Distance from station: SE 467mi, 752km
Updated: Tue, 03-Aug-2021 10:53am CDT
Overcast
Overcast
 Wind from WSW
Wind: WSW 8 mph , 13 km/h
Temperature: 81°F , 27°C
Heat Index: 87°F , 31°C
Dew Point: 75°F , 24°C
Humidity: 84%
Barometer: 29.95 inHg , 1014.2 hPa
Clouds: Overcast
Visibility: 10 miles , 16 km
Cloud details: Partly cloudy 1500 ft
Mostly cloudy 2300 ft
Overcast 4400 ft
2021/08/03 15:53 KSSI 031553Z AUTO 25007KT 10SM SCT015 BKN023 OVC044 27/24 A2995 RMK AO2 SLP143 T02670239
 
KECP - Panama City, FL
Distance from station: S 330mi, 531km
Updated: Tue, 03-Aug-2021 10:53am CDT
Mostly cloudy
Mostly cloudy
 Wind from NW
Wind: NW 6 mph , 9 km/h
Temperature: 81°F , 27°C
Heat Index: 87°F , 31°C
Dew Point: 75°F , 24°C
Humidity: 84%
Barometer: 29.94 inHg , 1013.9 hPa
Clouds: Mostly cloudy
Visibility: 10 miles , 16 km
Cloud details: Mostly cloudy 1400 ft
2021/08/03 15:53 KECP 031553Z 31005KT 10SM BKN014 27/24 A2994 RMK AO2 SLP149 T02720239
KTPA - Tampa, FL,
Distance from station: S 600mi, 965km
Updated: Tue, 03-Aug-2021 10:53am CDT
Mostly cloudy
Mostly cloudy
 Wind from SW
Wind: SW 7 mph , 11 km/h
Temperature: 82°F , 28°C
Heat Index: 89°F , 32°C
Dew Point: 75°F , 24°C
Humidity: 79%
Barometer: 30.01 inHg , 1016.3 hPa
Clouds: Mostly cloudy
Visibility: 10 miles , 16 km
Cloud details: Few Clouds 2000 ft
Partly cloudy 10000 ft
Mostly cloudy 22000 ft
2021/08/03 15:53 KTPA 031553Z 23006KT 10SM FEW020 SCT100 BKN220 28/24 A3001 RMK AO2 SLP161 CB DSNT SW-NW T02830244
 
KMTH - Marathon, FL,
Distance from station: S 915mi, 1473km
Updated: Tue, 03-Aug-2021 10:53am CDT
Few Clouds
Few Clouds
 Wind from S
Wind: S 7 mph , 11 km/h
Temperature: 90°F , 32°C
Heat Index: 107°F , 42°C
Dew Point: 79°F , 26°C
Humidity: 71%
Barometer: 30.05 inHg , 1017.6 hPa
Clouds: Few Clouds
Visibility: 10 miles , 16 km
Cloud details: Few Clouds 2000 ft
2021/08/03 15:53 KMTH 031553Z AUTO 19006KT 10SM FEW020 32/26 A3005 RMK AO2 SLP176 T03170256
KNYL - Yuma, AZ
Distance from station: W 3147mi, 5065km
Updated: Tue, 03-Aug-2021 10:57am CDT
Few Clouds
Few Clouds
 Wind from SW
Wind: SW 7 mph , 11 km/h
Temperature: 97°F , 36°C
Dew Point: 54°F , 12°C
Humidity: 23%
Barometer: 29.86 inHg , 1011.2 hPa
Clouds: Few Clouds
Visibility: 7 miles , 11 km
Cloud details: Few Clouds 12000 ft
2021/08/03 15:57 KNYL 031557Z 23006KT 7SM FEW120 36/12 A2986 RMK AO2 SLP107 T03610122 $
 
PABI - Ft. Greely, AK
Distance from station: NW 4300mi, 7167km
Updated: Tue, 03-Aug-2021 10:53am CDT
Partly cloudy
Partly cloudy
 Wind from W
Wind: W 6 mph , 9 km/h
Temperature: 64°F , 18°C
Dew Point: 52°F , 11°C
Humidity: 64%
Barometer: 30.02 inHg , 1016.6 hPa
Clouds: Partly cloudy
Visibility: 10 miles , 16 km
Cloud details: Partly cloudy 6000 ft
Partly cloudy 10000 ft
Partly cloudy 20000 ft
2021/08/03 15:53 PABI 031553Z 26005KT 10SM SCT060 SCT100 SCT200 18/11 A3002 RMK AO2 SLP158 T01830106